Time;durP1;ratioP1;P1;durP2;ratioP2;P2;SDS_P1;SDS_P2;PMS_P1;PMS_P2;Temp;Humidity;BMP_temperature;BMP_pressure;BME280_temperature;BME280_humidity;BME280_pressure;Samples;Min_cycle;Max_cycle;Signal;HPM_P1;HPM_P2
2022/09/09 00:01:38;;;;;;;2.83;2.63;;;11.80;99.90;;;;;;4847103;29;20056;-88
2022/09/09 00:05:15;;;;;;;6.30;2.53;;;11.90;99.90;;;;;;4801197;29;20042;-88
2022/09/09 00:08:08;;;;;;;;;;;;;;;;;;;;;
2022/09/09 00:10:46;;;;;;;2.20;1.98;;;11.90;99.90;;;;;;4823548;29;20050;-88
2022/09/09 00:13:37;;;;;;;3.08;2.55;;;11.70;99.90;;;;;;4807728;29;20680;-87
2022/09/09 00:16:12;;;;;;;3.92;3.63;;;11.50;99.90;;;;;;4792702;29;20062;-87
2022/09/09 00:18:52;;;;;;;1.80;1.70;;;11.60;99.90;;;;;;4822160;29;20497;-87
2022/09/09 00:21:43;;;;;;;2.13;1.95;;;11.60;99.90;;;;;;4822518;29;20053;-87
2022/09/09 00:25:28;;;;;;;1.65;1.45;;;11.70;99.90;;;;;;4793277;29;20049;-87
2022/09/09 00:28:23;;;;;;;2.63;2.42;;;11.60;99.90;;;;;;4807489;29;20271;-87
2022/09/09 00:31:23;;;;;;;2.58;1.80;;;11.40;99.90;;;;;;4808229;29;20416;-87
2022/09/09 00:34:21;;;;;;;2.53;2.33;;;11.30;99.90;;;;;;4824145;29;20053;-88
2022/09/09 00:36:52;;;;;;;3.00;2.83;;;11.20;99.90;;;;;;4840765;29;20412;-87
2022/09/09 00:43:25;;;;;;;3.90;2.22;;;11.50;99.90;;;;;;4814289;29;20057;-87
2022/09/09 00:46:26;;;;;;;1.85;1.65;;;11.50;99.90;;;;;;4839897;29;20151;-86
2022/09/09 00:49:41;;;;;;;3.13;2.88;;;11.70;99.90;;;;;;4816758;29;20046;-87
2022/09/09 00:52:33;;;;;;;3.22;2.92;;;11.90;99.90;;;;;;4816223;29;20042;-87
2022/09/09 01:01:13;;;;;;;1.65;1.55;;;12.10;99.90;;;;;;4857800;29;20516;-88
2022/09/09 01:04:49;;;;;;;;;;;;;;;;;;;;;
2022/09/09 01:08:15;;;;;;;2.75;2.50;;;11.90;99.90;;;;;;4830018;29;21788;-88
2022/09/09 01:11:29;;;;;;;1.83;1.63;;;11.80;99.90;;;;;;4849495;29;20068;-88
2022/09/09 01:14:14;;;;;;;1.90;1.80;;;11.80;99.90;;;;;;4836275;29;20053;-87
2022/09/09 01:17:25;;;;;;;3.75;1.83;;;12.20;99.90;;;;;;4827385;29;20042;-87
2022/09/09 01:20:21;;;;;;;1.77;1.67;;;11.90;99.90;;;;;;4788902;29;20053;-87
2022/09/09 01:23:15;;;;;;;2.45;2.35;;;12.30;99.90;;;;;;4826822;29;20050;-87
2022/09/09 01:32:55;;;;;;;;;;;;;;;;;;;;;
2022/09/09 01:36:50;;;;;;;1.33;1.23;;;12.10;99.90;;;;;;4797636;29;20402;-88
2022/09/09 01:40:42;;;;;;;1.70;1.60;;;12.20;99.90;;;;;;4752303;29;20054;-87
2022/09/09 01:43:54;;;;;;;1.40;1.30;;;12.20;99.90;;;;;;4716547;30;20068;-87
2022/09/09 01:46:56;;;;;;;2.58;2.30;;;12.20;99.90;;;;;;4764868;30;20091;-87
2022/09/09 01:50:17;;;;;;;;;;;;;;;;;;;;;
2022/09/09 02:07:56;;;;;;;;;;;;;;;;;;;;;
2022/09/09 02:11:52;;;;;;;;;;;;;;;;;;;;;
2022/09/09 02:16:06;;;;;;;2.45;2.25;;;12.60;99.90;;;;;;4697023;30;20053;-88
2022/09/09 02:20:46;;;;;;;1.73;1.58;;;12.70;99.90;;;;;;4600140;31;20048;-87
2022/09/09 02:30:12;;;;;;;2.08;1.73;;;12.90;99.90;;;;;;4672429;30;20050;-88
2022/09/09 02:34:54;;;;;;;1.98;1.77;;;13.10;99.90;;;;;;4681165;30;20418;-87
2022/09/09 02:42:43;;;;;;;2.63;2.42;;;13.10;99.90;;;;;;4763105;30;20402;-88
2022/09/09 02:46:52;;;;;;;1.42;1.33;;;13.10;99.90;;;;;;4785863;30;20848;-88
2022/09/09 02:49:55;;;;;;;2.13;1.77;;;13.00;99.90;;;;;;4803141;29;20050;-87
2022/09/09 03:02:39;;;;;;;4.97;2.08;;;13.00;99.90;;;;;;4770196;30;20059;-87
2022/09/09 03:09:10;;;;;;;1.60;1.42;;;12.90;99.90;;;;;;4827174;29;20080;-86
2022/09/09 03:11:57;;;;;;;3.97;1.83;;;12.90;99.90;;;;;;4813463;29;20389;-86
2022/09/09 03:14:36;;;;;;;4.07;1.92;;;12.90;99.90;;;;;;4799346;29;20455;-87
2022/09/09 03:17:21;;;;;;;1.58;1.48;;;12.90;99.90;;;;;;4823654;29;20066;-88
2022/09/09 03:21:21;;;;;;;2.65;2.45;;;12.90;99.90;;;;;;4783477;29;20039;-88
2022/09/09 03:37:44;;;;;;;;;;;;;;;;;;;;;
2022/09/09 03:40:36;;;;;;;1.65;1.55;;;12.40;99.90;;;;;;4683194;30;20174;-88
2022/09/09 03:43:45;;;;;;;2.83;2.63;;;12.40;99.90;;;;;;4702840;30;20053;-88
2022/09/09 03:46:33;;;;;;;2.10;1.92;;;12.30;99.90;;;;;;4702010;30;20053;-87
2022/09/09 03:49:39;;;;;;;2.10;2.00;;;12.30;99.90;;;;;;4788863;29;20058;-87
2022/09/09 03:53:05;;;;;;;3.45;3.25;;;12.30;99.90;;;;;;4760767;29;20065;-87
2022/09/09 03:56:54;;;;;;;2.22;2.03;;;12.40;99.90;;;;;;4792380;29;20058;-87
2022/09/09 04:00:03;;;;;;;1.95;1.85;;;12.40;99.90;;;;;;4818104;29;20050;-88
2022/09/09 04:02:56;;;;;;;2.38;2.15;;;12.40;99.90;;;;;;4843080;29;20496;-88
2022/09/09 04:05:48;;;;;;;5.57;2.85;;;12.30;99.90;;;;;;4804155;29;20073;-87
2022/09/09 04:08:26;;;;;;;12.90;2.75;;;12.30;99.90;;;;;;4802504;29;20053;-87
2022/09/09 04:11:05;;;;;;;3.88;2.92;;;12.30;99.90;;;;;;4843625;29;20057;-86
2022/09/09 04:13:37;;;;;;;3.15;2.58;;;12.30;99.90;;;;;;4811969;29;20132;-86
2022/09/09 04:16:18;;;;;;;3.10;2.78;;;12.20;99.90;;;;;;4818399;29;20073;-87
2022/09/09 04:19:16;;;;;;;2.33;2.22;;;12.20;99.90;;;;;;4842710;29;20054;-87
2022/09/09 04:21:59;;;;;;;2.60;2.40;;;12.20;99.90;;;;;;4829723;29;20492;-87
2022/09/09 04:24:36;;;;;;;3.47;3.13;;;12.20;99.90;;;;;;4813232;29;20042;-87
2022/09/09 04:27:19;;;;;;;1.88;1.77;;;12.10;99.90;;;;;;4820687;29;20050;-87
2022/09/09 04:30:18;;;;;;;3.47;2.22;;;12.10;99.90;;;;;;4809898;29;20042;-88
2022/09/09 04:33:07;;;;;;;2.35;2.03;;;12.20;99.90;;;;;;4823612;29;20046;-88
2022/09/09 04:36:24;;;;;;;2.70;1.75;;;12.20;99.90;;;;;;4828825;29;20053;-88
2022/09/09 04:39:11;;;;;;;2.17;2.00;;;12.30;99.90;;;;;;4842030;29;20060;-87
2022/09/09 04:41:49;;;;;;;1.83;1.73;;;12.30;99.90;;;;;;4826192;29;20500;-84
2022/09/09 04:44:17;;;;;;;2.80;2.10;;;12.30;99.90;;;;;;4844949;29;20508;-87
2022/09/09 04:46:45;;;;;;;1.65;1.55;;;12.30;99.90;;;;;;4811824;29;20053;-86
2022/09/09 04:49:49;;;;;;;1.35;1.20;;;12.40;99.90;;;;;;4819254;29;20053;-89
2022/09/09 04:53:39;;;;;;;;;;;;;;;;;;;;;
2022/09/09 05:01:25;;;;;;;2.58;1.52;;;12.70;99.90;;;;;;4821595;29;20058;-88
2022/09/09 05:04:04;;;;;;;2.80;2.20;;;12.60;99.90;;;;;;4822314;29;20066;-86
2022/09/09 05:06:45;;;;;;;1.38;1.35;;;12.60;99.90;;;;;;4822501;29;20062;-87
2022/09/09 05:09:30;;;;;;;1.80;1.40;;;13.00;99.90;;;;;;4829628;29;20047;-88
2022/09/09 05:12:35;;;;;;;;;;;;;;;;;;;;;
2022/09/09 05:15:17;;;;;;;2.00;1.27;;;12.70;99.90;;;;;;4823322;29;20062;-85
2022/09/09 05:18:49;;;;;;;1.30;1.20;;;12.80;99.90;;;;;;4811667;29;20046;-88
2022/09/09 05:22:07;;;;;;;2.00;1.37;;;13.00;99.90;;;;;;4817756;29;20046;-87
2022/09/09 05:40:02;;;;;;;3.40;1.95;;;13.00;99.90;;;;;;4795072;29;20551;-87
2022/09/09 05:42:48;;;;;;;3.35;1.27;;;13.10;99.90;;;;;;4779763;29;20059;-88
2022/09/09 05:45:46;;;;;;;;;;;;;;;;;;;;;
2022/09/09 05:49:28;;;;;;;;;;;;;;;;;;;;;
2022/09/09 05:52:44;;;;;;;2.05;1.10;;;13.50;99.90;;;;;;4814396;29;20046;-88
2022/09/09 05:56:47;;;;;;;;;;;;;;;;;;;;;
2022/09/09 06:00:12;;;;;;;2.15;1.15;;;13.70;99.90;;;;;;4841664;29;20049;-89
2022/09/09 06:10:48;;;;;;;1.75;1.65;;;13.80;99.90;;;;;;4831928;29;20415;-88
2022/09/09 06:14:08;;;;;;;1.38;1.20;;;13.80;99.90;;;;;;4859433;29;20071;-89
2022/09/09 06:17:33;;;;;;;1.20;1.20;;;13.90;99.90;;;;;;4826190;29;20050;-87
2022/09/09 06:35:26;;;;;;;2.63;1.88;;;13.90;99.90;;;;;;4784231;30;20043;-89
2022/09/09 06:38:09;;;;;;;1.88;1.10;;;13.90;99.90;;;;;;4786777;29;20069;-88
2022/09/09 06:41:02;;;;;;;2.35;1.45;;;13.70;99.90;;;;;;4791518;29;20058;-88
2022/09/09 06:44:03;;;;;;;1.20;1.10;;;13.80;99.90;;;;;;4796127;29;20389;-87
2022/09/09 06:47:02;;;;;;;2.83;2.15;;;13.80;99.90;;;;;;4795258;29;20070;-88
2022/09/09 06:49:48;;;;;;;2.85;1.95;;;13.90;99.90;;;;;;4765148;29;20058;-88
2022/09/09 06:59:59;;;;;;;1.90;1.67;;;13.80;99.90;;;;;;5276615;23;20057;-87
2022/09/09 07:25:57;;;;;;;1.27;1.20;;;14.20;99.90;;;;;;5147767;24;20396;-90
2022/09/09 08:24:02;;;;;;;;;;;;;;;;;;;;;
2022/09/09 08:29:05;;;;;;;1.40;1.10;;;14.40;99.90;;;;;;4785283;29;20156;-89
2022/09/09 08:33:42;;;;;;;1.25;1.20;;;14.10;99.90;;;;;;4715000;30;20052;-89
2022/09/09 08:36:50;;;;;;;1.73;1.10;;;14.20;99.90;;;;;;4668991;30;20433;-91
2022/09/09 08:40:32;;;;;;;2.40;1.40;;;14.20;99.90;;;;;;4746795;30;20063;-90
2022/09/09 08:43:04;;;;;;;1.33;1.15;;;14.30;99.90;;;;;;4856581;29;20500;-82
2022/09/09 08:46:07;;;;;;;1.90;1.55;;;14.30;99.90;;;;;;4841915;29;20065;-83
2022/09/09 08:48:41;;;;;;;1.27;1.17;;;14.30;99.90;;;;;;4798035;29;20054;-84
2022/09/09 08:51:12;;;;;;;1.15;1.05;;;14.30;99.90;;;;;;4804119;29;20061;-83
2022/09/09 08:53:59;;;;;;;;;;;14.40;99.90;;;;;;4810458;29;20412;-85
2022/09/09 10:01:39;;;;;;;3.65;1.50;;;14.50;99.90;;;;;;4806805;29;20053;-85
2022/09/09 10:17:01;;;;;;;1.58;1.48;;;14.50;99.90;;;;;;4821021;29;20413;-87
2022/09/09 10:19:55;;;;;;;12.43;2.83;;;14.50;99.90;;;;;;4869575;29;20065;-87
2022/09/09 10:22:30;;;;;;;2.13;1.50;;;14.60;99.90;;;;;;4800080;29;20057;-84
2022/09/09 10:25:40;;;;;;;1.20;1.20;;;14.60;99.90;;;;;;4833669;29;20050;-85
2022/09/09 10:28:51;;;;;;;1.42;1.33;;;14.70;99.90;;;;;;4835510;29;20069;-85
2022/09/09 10:31:32;;;;;;;4.32;1.35;;;14.70;99.90;;;;;;4829979;29;20487;-86
2022/09/09 10:34:21;;;;;;;2.15;1.90;;;14.80;99.90;;;;;;4829972;29;20811;-85
2022/09/09 10:36:50;;;;;;;1.52;1.10;;;14.80;99.90;;;;;;4845159;29;20053;-87
2022/09/09 10:39:40;;;;;;;0.80;0.80;;;14.90;99.90;;;;;;4861055;29;20057;-86
2022/09/09 10:42:12;;;;;;;;;;;14.90;99.90;;;;;;4862376;29;20061;-88
2022/09/09 10:45:12;;;;;;;1.38;1.27;;;14.90;99.90;;;;;;4861228;29;20441;-87
2022/09/09 10:47:55;;;;;;;1.20;1.15;;;14.80;99.90;;;;;;4833834;29;20621;-88
2022/09/09 10:50:42;;;;;;;1.02;0.93;;;14.90;99.90;;;;;;4861350;29;20061;-89
2022/09/09 10:53:46;;;;;;;1.98;1.75;;;15.00;99.90;;;;;;4929092;24;20076;31
2022/09/09 11:18:48;;;;;;;2.50;2.30;;;14.90;99.90;;;;;;4782742;29;20445;-90
2022/09/09 11:22:10;;;;;;;3.95;1.30;;;14.60;99.90;;;;;;4790221;29;20047;-91
2022/09/09 11:32:30;;;;;;;2.20;1.50;;;14.80;99.90;;;;;;5446844;24;20053;-86
2022/09/09 11:36:00;;;;;;;2.05;1.10;;;14.90;99.90;;;;;;4802407;29;20657;-87
2022/09/09 11:38:46;;;;;;;1.13;1.02;;;15.00;99.90;;;;;;4828425;29;20523;-86
2022/09/09 11:41:21;;;;;;;2.83;1.40;;;15.10;99.90;;;;;;4842526;29;20063;-87
2022/09/09 11:47:31;;;;;;;2.67;1.00;;;15.10;99.90;;;;;;4857667;29;20053;-88
2022/09/09 11:50:14;;;;;;;2.00;0.95;;;15.00;99.90;;;;;;4824614;29;20780;-87
2022/09/09 11:52:48;;;;;;;1.30;1.20;;;14.90;99.90;;;;;;4844157;29;20049;-89
2022/09/09 11:55:36;;;;;;;1.30;1.20;;;14.90;99.90;;;;;;4861302;29;20064;-87
2022/09/09 11:58:10;;;;;;;1.30;1.17;;;14.90;99.90;;;;;;4876365;29;20496;-89
2022/09/09 12:00:44;;;;;;;0.93;0.85;;;15.00;99.90;;;;;;4859863;29;20057;-86
2022/09/09 12:03:43;;;;;;;0.70;0.70;;;14.90;99.90;;;;;;4859652;29;20057;-88
2022/09/09 12:06:16;;;;;;;0.93;0.82;;;14.90;99.90;;;;;;4858813;29;20050;-87
2022/09/09 12:09:29;;;;;;;3.60;1.20;;;14.90;99.90;;;;;;4858588;29;20420;-87
2022/09/09 12:12:13;;;;;;;0.80;0.80;;;15.00;99.90;;;;;;4842850;29;20053;-88
2022/09/09 12:15:02;;;;;;;1.90;0.82;;;15.00;99.90;;;;;;4845542;29;20064;-87
2022/09/09 12:17:50;;;;;;;0.95;0.95;;;15.20;99.90;;;;;;4840499;29;20412;-87
2022/09/09 12:20:51;;;;;;;1.00;0.75;;;15.30;99.90;;;;;;4849906;29;20724;-87
2022/09/09 12:23:52;;;;;;;0.70;0.70;;;15.20;99.90;;;;;;4860148;29;20040;-89
2022/09/09 12:26:45;;;;;;;0.60;0.60;;;15.30;99.90;;;;;;4816930;29;20048;-88
2022/09/09 12:29:43;;;;;;;0.90;0.90;;;15.40;99.90;;;;;;4845184;29;20052;-86
2022/09/09 12:32:24;;;;;;;0.85;0.70;;;15.40;99.90;;;;;;4848730;29;20052;-87
2022/09/09 12:35:07;;;;;;;0.68;0.55;;;15.50;99.90;;;;;;4877334;29;20060;-86
2022/09/09 12:37:50;;;;;;;0.50;0.50;;;15.50;99.90;;;;;;4844811;29;20063;-89
2022/09/09 12:40:38;;;;;;;0.57;0.57;;;15.50;99.90;;;;;;4844371;29;20052;-87
2022/09/09 12:43:22;;;;;;;2.05;0.70;;;15.50;99.90;;;;;;4845550;29;20068;-86
2022/09/09 12:50:00;;;;;;;3.60;2.67;;;15.60;99.90;;;;;;4862741;29;20069;-85
2022/09/09 12:57:43;;;;;;;2.42;0.73;;;15.60;99.90;;;;;;4796784;29;20068;-85
2022/09/09 13:16:24;;;;;;;1.27;1.23;;;15.80;99.90;;;;;;4740382;30;20058;-86
2022/09/09 13:20:49;;;;;;;0.90;0.50;;;15.90;99.90;;;;;;4708374;30;20052;-87
2022/09/09 13:25:11;;;;;;;1.50;0.50;;;16.10;99.90;;;;;;4693744;30;20520;-87
2022/09/09 13:29:23;;;;;;;0.40;0.40;;;16.20;99.90;;;;;;4669395;30;20049;-85
2022/09/09 13:32:33;;;;;;;1.10;0.40;;;16.20;99.90;;;;;;4649601;30;20052;-86
2022/09/09 13:36:00;;;;;;;0.43;0.43;;;16.20;99.90;;;;;;4713689;30;20052;-87
2022/09/09 13:39:34;;;;;;;2.80;0.68;;;16.40;99.90;;;;;;4737330;30;20448;-86
2022/09/09 13:42:58;;;;;;;1.45;0.60;;;16.20;99.90;;;;;;4750071;30;20060;-86
2022/09/09 13:46:10;;;;;;;3.50;2.90;;;16.10;99.90;;;;;;4739928;30;20072;-85
2022/09/09 13:49:21;;;;;;;1.27;0.80;;;16.20;99.90;;;;;;4797322;29;20063;-85
2022/09/09 13:52:58;;;;;;;0.52;0.52;;;16.20;99.90;;;;;;4876209;29;20071;-87
2022/09/09 13:55:45;;;;;;;1.33;1.23;;;16.10;99.90;;;;;;4844731;29;20629;-87
2022/09/09 13:58:40;;;;;;;0.60;0.60;;;16.20;99.90;;;;;;4830423;29;20317;-87
2022/09/09 14:01:35;;;;;;;;;;;;;;;;;;;;;
2022/09/09 14:04:19;;;;;;;0.70;0.70;;;16.10;99.90;;;;;;4859954;29;20053;-86
2022/09/09 14:06:51;;;;;;;1.95;0.90;;;16.10;99.90;;;;;;4846777;29;20507;-86
2022/09/09 14:10:01;;;;;;;0.80;0.80;;;16.10;99.90;;;;;;4853064;29;20052;-85
2022/09/09 14:12:46;;;;;;;1.00;0.70;;;16.10;99.90;;;;;;4862367;29;20053;-85
2022/09/09 14:15:22;;;;;;;1.00;0.70;;;16.00;99.90;;;;;;4847009;29;20049;-85
2022/09/09 14:17:53;;;;;;;0.63;0.63;;;15.90;99.90;;;;;;4861217;29;20053;-85
2022/09/09 14:20:21;;;;;;;1.63;0.77;;;16.00;99.90;;;;;;4861566;29;20057;-85
2022/09/09 14:22:54;;;;;;;0.83;0.83;;;15.90;99.90;;;;;;4862349;29;20053;-88
2022/09/09 14:25:21;;;;;;;1.30;1.00;;;15.90;99.90;;;;;;4861374;29;20045;-86
2022/09/09 14:27:52;;;;;;;0.73;0.70;;;15.90;99.90;;;;;;4861349;29;20052;-87
2022/09/09 14:30:20;;;;;;;0.80;0.80;;;15.90;99.90;;;;;;4851626;29;20049;-86
2022/09/09 14:32:47;;;;;;;0.95;0.88;;;15.70;99.90;;;;;;4871844;29;20047;-86
2022/09/09 14:35:18;;;;;;;0.85;0.85;;;15.80;99.90;;;;;;4864669;29;20072;-87
2022/09/09 14:38:02;;;;;;;0.80;0.80;;;15.80;99.90;;;;;;4846196;29;20582;-87
2022/09/09 14:40:30;;;;;;;0.70;0.70;;;15.80;99.90;;;;;;4846150;29;20068;-85
2022/09/09 14:42:58;;;;;;;1.30;1.20;;;15.80;99.90;;;;;;4862368;29;20061;-85
2022/09/09 14:45:26;;;;;;;2.15;0.95;;;15.70;99.90;;;;;;4830416;29;20609;-86
2022/09/09 14:47:54;;;;;;;0.85;0.82;;;15.70;99.90;;;;;;4845634;29;20053;-87
2022/09/09 14:50:23;;;;;;;1.42;1.00;;;15.70;99.90;;;;;;4861444;29;20056;-87
2022/09/09 14:52:59;;;;;;;0.80;0.80;;;15.70;99.90;;;;;;4860406;29;20823;-87
2022/09/09 14:55:29;;;;;;;2.97;1.40;;;15.70;99.90;;;;;;4830467;29;20060;-86
2022/09/09 14:57:57;;;;;;;0.90;0.90;;;15.70;99.90;;;;;;4845940;29;20415;-87
2022/09/09 15:00:24;;;;;;;1.35;1.35;;;15.70;99.90;;;;;;4845738;29;20506;-87
2022/09/09 15:02:56;;;;;;;0.88;0.88;;;15.70;99.90;;;;;;4831839;29;20061;-86
2022/09/09 15:05:24;;;;;;;0.95;0.80;;;15.70;99.90;;;;;;4848366;29;20049;-86
2022/09/09 15:07:52;;;;;;;0.90;0.90;;;15.70;99.90;;;;;;4863179;29;20053;-87
2022/09/09 15:10:23;;;;;;;1.20;1.00;;;15.70;99.90;;;;;;4846084;29;20136;-87
2022/09/09 15:12:51;;;;;;;1.08;1.02;;;15.80;99.90;;;;;;4860974;29;20049;-87
2022/09/09 15:15:19;;;;;;;0.70;0.70;;;15.80;99.90;;;;;;4829803;29;20065;-87
2022/09/09 15:17:50;;;;;;;0.75;0.75;;;15.80;99.90;;;;;;4860943;29;20049;-88
2022/09/09 15:20:18;;;;;;;0.80;0.80;;;15.80;99.90;;;;;;4829835;29;20056;-86
2022/09/09 15:22:46;;;;;;;2.55;2.35;;;15.80;99.90;;;;;;4845261;29;20065;-87
2022/09/09 15:25:17;;;;;;;2.67;2.47;;;15.80;99.90;;;;;;4845349;29;20052;-86
2022/09/09 15:27:50;;;;;;;1.27;1.20;;;15.90;99.90;;;;;;4844754;29;20056;-87
2022/09/09 15:30:18;;;;;;;2.70;1.10;;;15.70;99.90;;;;;;4844911;29;20463;-87
2022/09/09 15:32:54;;;;;;;1.13;1.02;;;15.70;99.90;;;;;;4860354;29;20052;-87
2022/09/09 15:35:22;;;;;;;1.00;1.00;;;15.70;99.90;;;;;;4861015;29;20439;-87
2022/09/09 15:37:55;;;;;;;1.63;1.38;;;15.70;99.90;;;;;;4859835;29;20072;-87
2022/09/09 15:40:37;;;;;;;1.38;1.27;;;15.70;99.90;;;;;;4876995;29;20060;-86
2022/09/09 15:43:13;;;;;;;0.80;0.80;;;15.70;99.90;;;;;;4876473;29;20403;-87
2022/09/09 15:45:59;;;;;;;1.20;1.10;;;15.70;99.90;;;;;;4836197;29;20049;-86
2022/09/09 15:48:34;;;;;;;1.52;1.45;;;15.70;99.90;;;;;;4844530;29;20045;-87
2022/09/09 15:51:55;;;;;;;0.88;0.88;;;15.60;99.90;;;;;;4857254;29;20053;-87
2022/09/09 15:55:31;;;;;;;1.20;1.10;;;15.80;99.90;;;;;;4845698;29;20067;-87
2022/09/09 15:58:04;;;;;;;1.30;1.20;;;15.80;99.90;;;;;;4862559;29;20044;-87
2022/09/09 16:00:46;;;;;;;1.05;0.98;;;15.70;99.90;;;;;;4862451;29;20048;-87
2022/09/09 16:03:38;;;;;;;1.70;1.38;;;15.80;99.90;;;;;;4850703;29;20399;-87
2022/09/09 16:06:23;;;;;;;3.25;0.90;;;15.70;99.90;;;;;;4877419;29;20402;-87
2022/09/09 16:10:03;;;;;;;1.27;1.17;;;15.60;99.90;;;;;;4838287;29;20056;-87
2022/09/09 16:13:21;;;;;;;1.25;1.15;;;15.60;99.90;;;;;;4864442;29;20060;-86
2022/09/09 16:16:10;;;;;;;2.90;1.40;;;15.60;99.90;;;;;;4862839;29;20061;-87
2022/09/09 16:19:07;;;;;;;1.30;1.20;;;15.60;99.90;;;;;;4864085;29;20064;-87
2022/09/09 16:21:55;;;;;;;1.58;1.48;;;15.60;99.90;;;;;;4853276;29;20075;-87
2022/09/09 16:25:54;;;;;;;0.95;0.95;;;15.60;99.90;;;;;;4843486;29;20061;-86
2022/09/09 16:42:13;;;;;;;1.60;1.50;;;15.30;99.90;;;;;;4760870;30;20052;-82
2022/09/09 16:44:41;;;;;;;1.08;1.08;;;15.40;99.90;;;;;;4814911;29;20123;-83
2022/09/09 16:47:08;;;;;;;3.10;1.35;;;15.40;99.90;;;;;;4851696;29;20519;-85
2022/09/09 16:49:38;;;;;;;4.45;1.10;;;15.50;99.90;;;;;;4876783;29;20053;-83
2022/09/09 16:52:10;;;;;;;1.75;1.35;;;15.50;99.90;;;;;;4858181;29;20777;-82
2022/09/09 16:54:38;;;;;;;1.52;1.42;;;15.50;99.90;;;;;;4893579;29;20048;-82
2022/09/09 16:57:36;;;;;;;6.90;1.30;;;15.50;99.90;;;;;;4860605;29;20056;-88
2022/09/09 17:27:47;;;;;;;2.90;2.50;;;15.60;99.90;;;;;;5889692;23;20033;31
2022/09/09 17:30:16;;;;;;;4.35;1.50;;;15.50;99.90;;;;;;4797223;29;20066;-84
2022/09/09 17:32:44;;;;;;;1.02;0.95;;;15.40;99.90;;;;;;4817983;29;20057;-87
2022/09/09 17:35:19;;;;;;;2.80;1.02;;;15.30;99.90;;;;;;4804412;29;20791;-88
2022/09/09 17:38:03;;;;;;;0.80;0.80;;;15.20;99.90;;;;;;4803534;29;20043;-88
2022/09/09 17:40:38;;;;;;;1.83;1.30;;;15.10;99.90;;;;;;4803409;29;20425;-87
2022/09/09 17:43:08;;;;;;;1.15;1.05;;;15.00;99.90;;;;;;4819671;29;20072;-84
2022/09/09 17:45:36;;;;;;;1.05;0.85;;;14.90;99.90;;;;;;4803581;29;20046;-83
2022/09/09 17:48:03;;;;;;;1.45;1.35;;;14.80;99.90;;;;;;4818035;29;20055;-81
2022/09/09 17:50:33;;;;;;;0.82;0.82;;;14.80;99.90;;;;;;4820187;29;20062;-82
2022/09/09 17:53:02;;;;;;;1.70;1.15;;;14.70;99.90;;;;;;4803236;29;20059;-85
2022/09/09 17:55:33;;;;;;;2.28;2.03;;;14.70;99.90;;;;;;4820175;29;20069;-86
2022/09/09 17:58:00;;;;;;;2.33;1.25;;;14.70;99.90;;;;;;4818244;29;20054;-85
2022/09/09 18:00:29;;;;;;;1.25;1.15;;;14.70;99.90;;;;;;4811755;29;20051;-84
2022/09/09 18:02:58;;;;;;;2.20;1.58;;;14.70;99.90;;;;;;4774093;29;20066;-85
2022/09/09 18:05:27;;;;;;;2.72;1.40;;;14.70;99.90;;;;;;4803242;29;20054;-85
2022/09/09 18:07:59;;;;;;;1.33;1.23;;;14.70;99.90;;;;;;4798883;29;20054;-87
2022/09/09 18:10:31;;;;;;;2.90;2.00;;;14.70;99.90;;;;;;4786621;29;20055;-83
2022/09/09 18:13:00;;;;;;;1.23;1.13;;;14.70;99.90;;;;;;4819556;29;20062;-83
2022/09/09 18:15:32;;;;;;;1.67;1.58;;;14.60;99.90;;;;;;4803035;29;20510;-84
2022/09/09 18:18:16;;;;;;;1.65;1.55;;;14.60;99.90;;;;;;4772295;29;20054;-84
2022/09/09 18:20:44;;;;;;;1.50;1.40;;;14.50;99.90;;;;;;4802936;29;20054;-82
2022/09/09 18:23:12;;;;;;;7.38;2.28;;;14.50;99.90;;;;;;4802755;29;20058;-85
2022/09/09 18:25:43;;;;;;;1.45;1.35;;;14.40;99.90;;;;;;4787808;29;20046;-83
2022/09/09 18:28:10;;;;;;;;;;;14.40;99.90;;;;;;4803240;29;20062;-85
2022/09/09 18:30:39;;;;;;;2.17;1.98;;;14.30;99.90;;;;;;4819906;29;19936;-84
2022/09/09 18:33:07;;;;;;;2.67;1.50;;;14.30;99.90;;;;;;4787795;29;20421;-84
2022/09/09 18:35:36;;;;;;;1.88;1.33;;;14.30;99.90;;;;;;4802824;29;20153;-84
2022/09/09 18:38:03;;;;;;;3.13;1.90;;;14.20;99.90;;;;;;4799424;29;20417;-83
2022/09/09 18:40:31;;;;;;;3.15;1.58;;;14.10;99.90;;;;;;4801551;29;20054;-84
2022/09/09 18:42:59;;;;;;;3.40;2.08;;;14.10;99.90;;;;;;4805227;29;20481;-83
2022/09/09 18:45:27;;;;;;;15.20;3.17;;;14.10;99.90;;;;;;4803250;29;20043;-82
2022/09/09 18:47:55;;;;;;;2.90;1.27;;;14.10;99.90;;;;;;4803080;29;20054;-81
2022/09/09 18:50:23;;;;;;;10.80;3.53;;;14.00;99.90;;;;;;4821541;29;20501;-82
2022/09/09 18:52:51;;;;;;;3.90;1.55;;;14.00;99.90;;;;;;4808868;29;20054;-84
2022/09/09 18:55:19;;;;;;;3.45;1.42;;;13.90;99.90;;;;;;4806259;29;20066;-86
2022/09/09 18:57:47;;;;;;;1.55;1.45;;;13.90;99.90;;;;;;4804763;29;20572;-84
2022/09/09 19:00:15;;;;;;;4.45;2.65;;;13.80;99.90;;;;;;4820551;29;20054;-85
2022/09/09 19:02:43;;;;;;;2.65;1.40;;;13.80;99.90;;;;;;4806073;29;20062;-85
2022/09/09 19:05:11;;;;;;;1.88;1.70;;;13.80;99.90;;;;;;4806263;29;20046;-84
2022/09/09 19:08:58;;;;;;;;;;;;;;;;;;;;;
2022/09/09 19:12:07;;;;;;;1.67;1.58;;;13.70;99.90;;;;;;4701921;30;20060;-88
2022/09/09 19:15:04;;;;;;;2.70;1.90;;;13.70;99.90;;;;;;4720196;29;20058;-88
2022/09/09 19:17:42;;;;;;;6.55;1.33;;;13.60;99.90;;;;;;4806320;29;20058;-88
2022/09/09 19:20:57;;;;;;;1.80;1.45;;;13.20;99.90;;;;;;4792172;29;20061;-88
2022/09/09 19:25:02;;;;;;;1.48;1.38;;;13.20;99.90;;;;;;4798017;29;20532;-87
2022/09/09 19:27:30;;;;;;;1.58;1.27;;;13.20;99.90;;;;;;4804937;29;20071;-86
2022/09/09 19:29:58;;;;;;;3.03;1.65;;;13.10;99.90;;;;;;4801747;29;20405;-88
2022/09/09 19:32:36;;;;;;;5.78;1.42;;;13.10;99.90;;;;;;4771569;29;20062;-88
2022/09/09 19:35:21;;;;;;;1.30;1.30;;;13.00;99.90;;;;;;4787124;29;20054;-88
2022/09/09 19:37:50;;;;;;;1.20;1.10;;;12.90;99.90;;;;;;4786106;29;20580;-88
2022/09/09 19:40:50;;;;;;;4.53;2.50;;;12.60;99.90;;;;;;4761937;29;20058;-88
2022/09/09 19:47:53;;;;;;;1.40;1.30;;;12.70;99.90;;;;;;1415970;27;20053;-81
2022/09/09 19:50:23;;;;;;;1.85;1.75;;;12.60;99.90;;;;;;4861992;29;20045;-84
2022/09/09 19:53:27;;;;;;;2.53;1.25;;;12.60;99.90;;;;;;4834409;29;20053;-83
2022/09/09 20:01:16;;;;;;;1.63;1.40;;;12.50;99.90;;;;;;5012743;23;20049;-85
2022/09/09 20:03:50;;;;;;;1.85;1.70;;;12.50;99.90;;;;;;4828423;29;20069;-85
2022/09/09 20:07:02;;;;;;;;;;;;;;;;;;;;;
2022/09/09 20:10:14;;;;;;;4.85;1.65;;;12.50;99.90;;;;;;4836763;29;20514;-87
2022/09/09 20:12:42;;;;;;;1.38;1.27;;;13.00;99.90;;;;;;4844318;23;20118;-83
2022/09/09 20:15:40;;;;;;;;;;;;;;;;;;;;;
2022/09/09 20:18:31;;;;;;;1.10;1.10;;;13.30;99.90;;;;;;4793378;29;20054;-85
2022/09/09 20:21:29;;;;;;;1.42;1.33;;;13.20;99.90;;;;;;4792217;29;20046;-87
2022/09/09 20:24:30;;;;;;;3.00;1.75;;;13.10;99.90;;;;;;4779580;29;20051;-86
2022/09/09 20:27:51;;;;;;;0.95;0.95;;;13.30;99.90;;;;;;4790842;29;20843;-87
2022/09/09 20:30:40;;;;;;;2.17;1.40;;;13.10;99.90;;;;;;4748470;30;20502;-85
2022/09/09 20:33:17;;;;;;;5.18;1.35;;;13.00;99.90;;;;;;4784621;30;20055;-87
2022/09/09 20:35:58;;;;;;;;;;;13.00;99.90;;;;;;4771824;29;20074;-87
2022/09/09 20:45:31;;;;;;;1.38;1.13;;;13.10;99.90;;;;;;3364795;23;20052;-87
2022/09/09 20:47:59;;;;;;;1.45;1.35;;;13.00;99.90;;;;;;4829325;29;20061;-84
2022/09/09 20:50:27;;;;;;;2.30;2.13;;;13.10;99.90;;;;;;4862887;29;20068;-83
2022/09/09 20:52:55;;;;;;;1.75;1.42;;;13.10;99.90;;;;;;4862572;29;20056;-82
2022/09/09 20:55:33;;;;;;;1.55;1.45;;;13.10;99.90;;;;;;4862686;29;20045;-83
2022/09/09 20:58:00;;;;;;;4.05;2.38;;;13.00;99.90;;;;;;4861926;29;20060;-83
2022/09/09 21:00:28;;;;;;;1.45;1.00;;;13.00;99.90;;;;;;4862133;29;20052;-82
2022/09/09 21:02:56;;;;;;;1.35;1.20;;;12.90;99.90;;;;;;4879050;29;20493;-83
2022/09/09 21:05:24;;;;;;;1.67;1.58;;;12.90;99.90;;;;;;4861373;29;20053;-83
2022/09/09 21:07:52;;;;;;;4.60;1.38;;;12.90;99.90;;;;;;4861230;29;20099;-82
2022/09/09 21:10:20;;;;;;;1.25;1.15;;;12.80;99.90;;;;;;4828618;29;20794;-83
2022/09/09 21:12:48;;;;;;;2.78;1.95;;;12.70;99.90;;;;;;4858915;29;20045;-83
2022/09/09 21:15:15;;;;;;;2.03;1.58;;;12.60;99.90;;;;;;4844022;29;20052;-82
2022/09/09 21:17:43;;;;;;;1.00;1.00;;;12.60;99.90;;;;;;4842865;29;20045;-83
2022/09/09 21:20:11;;;;;;;1.60;1.50;;;12.60;99.90;;;;;;4858770;29;20049;-83
2022/09/09 21:22:39;;;;;;;2.05;1.20;;;12.30;99.90;;;;;;4978967;24;20777;-84
2022/09/09 21:25:17;;;;;;;6.50;2.03;;;12.30;99.90;;;;;;4842758;29;20053;-83
2022/09/09 21:27:45;;;;;;;0.80;0.80;;;12.10;99.90;;;;;;4810380;29;20140;-83
2022/09/09 21:30:13;;;;;;;1.00;1.00;;;12.10;99.90;;;;;;4847233;29;20053;-83
2022/09/09 21:32:42;;;;;;;2.55;1.63;;;12.10;99.90;;;;;;4827655;29;20056;-84
2022/09/09 21:35:12;;;;;;;1.35;1.20;;;12.10;99.90;;;;;;4828705;29;20054;-84
2022/09/09 21:37:40;;;;;;;2.33;1.63;;;12.20;99.90;;;;;;4809099;29;20050;-84
2022/09/09 21:40:08;;;;;;;2.47;1.75;;;12.20;99.90;;;;;;4794904;29;20534;-84
2022/09/09 21:42:37;;;;;;;1.38;1.30;;;12.10;99.90;;;;;;4795059;29;20058;-84
2022/09/09 21:45:06;;;;;;;1.08;0.98;;;12.10;99.90;;;;;;4821896;29;20049;-84